sensor_id;sensor_type;location;lat;lon;timestamp;temperature;humidity
32476;DHT22;18929;48.008;10.882;2023-12-29T00:00:45;8.70;99.90
32476;DHT22;18929;48.008;10.882;2023-12-29T00:03:12;8.40;99.90
32476;DHT22;18929;48.008;10.882;2023-12-29T00:05:39;8.50;99.90
32476;DHT22;18929;48.008;10.882;2023-12-29T00:08:06;8.50;99.90
32476;DHT22;18929;48.008;10.882;2023-12-29T00:10:34;8.40;99.90
32476;DHT22;18929;48.008;10.882;2023-12-29T00:13:01;8.40;99.90
32476;DHT22;18929;48.008;10.882;2023-12-29T00:15:28;8.30;99.90
32476;DHT22;18929;48.008;10.882;2023-12-29T00:17:55;8.40;99.90
32476;DHT22;18929;48.008;10.882;2023-12-29T00:20:21;8.50;99.90
32476;DHT22;18929;48.008;10.882;2023-12-29T00:22:48;8.40;99.90
32476;DHT22;18929;48.008;10.882;2023-12-29T00:25:15;8.40;99.90
32476;DHT22;18929;48.008;10.882;2023-12-29T00:27:43;8.60;99.90
32476;DHT22;18929;48.008;10.882;2023-12-29T00:30:10;8.40;99.90
32476;DHT22;18929;48.008;10.882;2023-12-29T00:32:37;8.50;99.90
32476;DHT22;18929;48.008;10.882;2023-12-29T00:35:04;8.60;99.90
32476;DHT22;18929;48.008;10.882;2023-12-29T00:37:31;8.70;99.90
32476;DHT22;18929;48.008;10.882;2023-12-29T00:39:58;8.60;99.90
32476;DHT22;18929;48.008;10.882;2023-12-29T00:42:25;8.50;99.90
32476;DHT22;18929;48.008;10.882;2023-12-29T00:44:53;8.40;99.90
32476;DHT22;18929;48.008;10.882;2023-12-29T00:47:20;8.40;99.90
32476;DHT22;18929;48.008;10.882;2023-12-29T00:49:49;8.10;99.90
32476;DHT22;18929;48.008;10.882;2023-12-29T00:52:17;8.30;99.90
32476;DHT22;18929;48.008;10.882;2023-12-29T00:54:44;8.40;99.90
32476;DHT22;18929;48.008;10.882;2023-12-29T00:57:11;8.20;99.90
32476;DHT22;18929;48.008;10.882;2023-12-29T00:59:38;8.20;99.90
32476;DHT22;18929;48.008;10.882;2023-12-29T01:02:07;8.10;99.90
32476;DHT22;18929;48.008;10.882;2023-12-29T01:04:34;8.10;99.90
32476;DHT22;18929;48.008;10.882;2023-12-29T01:07:03;8.10;99.90
32476;DHT22;18929;48.008;10.882;2023-12-29T01:09:30;8.10;99.90
32476;DHT22;18929;48.008;10.882;2023-12-29T01:11:57;8.00;99.90
32476;DHT22;18929;48.008;10.882;2023-12-29T01:14:24;8.00;99.90
32476;DHT22;18929;48.008;10.882;2023-12-29T01:16:51;7.80;99.90
32476;DHT22;18929;48.008;10.882;2023-12-29T01:22:02;7.80;99.90
32476;DHT22;18929;48.008;10.882;2023-12-29T01:24:29;8.00;99.90
32476;DHT22;18929;48.008;10.882;2023-12-29T01:26:56;7.90;99.90
32476;DHT22;18929;48.008;10.882;2023-12-29T01:29:23;8.10;99.90
32476;DHT22;18929;48.008;10.882;2023-12-29T01:31:49;8.10;99.90
32476;DHT22;18929;48.008;10.882;2023-12-29T01:34:16;8.20;99.90
32476;DHT22;18929;48.008;10.882;2023-12-29T01:36:43;8.20;99.90
32476;DHT22;18929;48.008;10.882;2023-12-29T01:39:11;7.90;99.90
32476;DHT22;18929;48.008;10.882;2023-12-29T01:41:38;7.90;99.90
32476;DHT22;18929;48.008;10.882;2023-12-29T01:44:20;7.80;99.90
32476;DHT22;18929;48.008;10.882;2023-12-29T01:46:51;7.90;99.90
32476;DHT22;18929;48.008;10.882;2023-12-29T01:49:18;8.00;99.90
32476;DHT22;18929;48.008;10.882;2023-12-29T01:51:47;7.70;99.90
32476;DHT22;18929;48.008;10.882;2023-12-29T01:54:16;7.90;99.90
32476;DHT22;18929;48.008;10.882;2023-12-29T01:56:43;8.00;99.90
32476;DHT22;18929;48.008;10.882;2023-12-29T01:59:11;7.90;99.90
32476;DHT22;18929;48.008;10.882;2023-12-29T02:01:38;8.10;99.90
32476;DHT22;18929;48.008;10.882;2023-12-29T02:04:05;7.90;99.90
32476;DHT22;18929;48.008;10.882;2023-12-29T02:06:33;8.00;99.90
32476;DHT22;18929;48.008;10.882;2023-12-29T02:09:01;7.90;99.90
32476;DHT22;18929;48.008;10.882;2023-12-29T02:11:30;8.00;99.90
32476;DHT22;18929;48.008;10.882;2023-12-29T02:13:57;8.10;99.90
32476;DHT22;18929;48.008;10.882;2023-12-29T02:18:55;8.30;99.90
32476;DHT22;18929;48.008;10.882;2023-12-29T02:21:24;8.30;99.90
32476;DHT22;18929;48.008;10.882;2023-12-29T02:23:50;8.30;99.90
32476;DHT22;18929;48.008;10.882;2023-12-29T02:26:19;8.20;99.90
32476;DHT22;18929;48.008;10.882;2023-12-29T02:28:48;8.20;99.90
32476;DHT22;18929;48.008;10.882;2023-12-29T02:31:17;8.10;99.90
32476;DHT22;18929;48.008;10.882;2023-12-29T02:33:46;8.20;99.90
32476;DHT22;18929;48.008;10.882;2023-12-29T02:36:14;8.30;99.90
32476;DHT22;18929;48.008;10.882;2023-12-29T02:38:42;8.30;99.90
32476;DHT22;18929;48.008;10.882;2023-12-29T02:41:10;8.20;99.90
32476;DHT22;18929;48.008;10.882;2023-12-29T02:43:40;8.30;99.90
32476;DHT22;18929;48.008;10.882;2023-12-29T02:46:06;8.20;99.90
32476;DHT22;18929;48.008;10.882;2023-12-29T02:48:33;8.10;99.90
32476;DHT22;18929;48.008;10.882;2023-12-29T02:51:00;8.10;99.90
32476;DHT22;18929;48.008;10.882;2023-12-29T02:53:27;8.20;99.90
32476;DHT22;18929;48.008;10.882;2023-12-29T02:55:54;8.10;99.90
32476;DHT22;18929;48.008;10.882;2023-12-29T02:58:21;8.10;99.90
32476;DHT22;18929;48.008;10.882;2023-12-29T03:00:49;7.90;99.90
32476;DHT22;18929;48.008;10.882;2023-12-29T03:03:16;8.00;99.90
32476;DHT22;18929;48.008;10.882;2023-12-29T03:08:13;8.20;99.90
32476;DHT22;18929;48.008;10.882;2023-12-29T03:10:40;8.30;99.90
32476;DHT22;18929;48.008;10.882;2023-12-29T03:13:07;8.30;99.90
32476;DHT22;18929;48.008;10.882;2023-12-29T03:15:34;8.20;99.90
32476;DHT22;18929;48.008;10.882;2023-12-29T03:18:02;8.30;99.90
32476;DHT22;18929;48.008;10.882;2023-12-29T03:20:29;8.10;99.90
32476;DHT22;18929;48.008;10.882;2023-12-29T03:22:56;8.10;99.90
32476;DHT22;18929;48.008;10.882;2023-12-29T03:25:23;7.80;99.90
32476;DHT22;18929;48.008;10.882;2023-12-29T03:27:50;8.00;99.90
32476;DHT22;18929;48.008;10.882;2023-12-29T03:30:16;8.10;99.90
32476;DHT22;18929;48.008;10.882;2023-12-29T03:32:45;8.20;99.90
32476;DHT22;18929;48.008;10.882;2023-12-29T03:35:14;8.10;99.90
32476;DHT22;18929;48.008;10.882;2023-12-29T03:37:42;8.00;99.90
32476;DHT22;18929;48.008;10.882;2023-12-29T03:40:09;8.10;99.90
32476;DHT22;18929;48.008;10.882;2023-12-29T03:42:36;8.20;99.90
32476;DHT22;18929;48.008;10.882;2023-12-29T03:45:03;8.20;99.90
32476;DHT22;18929;48.008;10.882;2023-12-29T03:47:29;8.20;99.90
32476;DHT22;18929;48.008;10.882;2023-12-29T03:49:57;8.50;99.90
32476;DHT22;18929;48.008;10.882;2023-12-29T03:52:25;8.40;99.90
32476;DHT22;18929;48.008;10.882;2023-12-29T03:54:52;8.20;99.90
32476;DHT22;18929;48.008;10.882;2023-12-29T03:57:19;8.30;99.90
32476;DHT22;18929;48.008;10.882;2023-12-29T03:59:46;8.10;99.90
32476;DHT22;18929;48.008;10.882;2023-12-29T04:02:13;8.30;99.90
32476;DHT22;18929;48.008;10.882;2023-12-29T04:04:39;8.30;99.90
32476;DHT22;18929;48.008;10.882;2023-12-29T04:07:06;8.20;99.90
32476;DHT22;18929;48.008;10.882;2023-12-29T04:09:34;8.00;99.90
32476;DHT22;18929;48.008;10.882;2023-12-29T04:12:01;7.50;99.90
32476;DHT22;18929;48.008;10.882;2023-12-29T04:14:28;7.50;99.90
32476;DHT22;18929;48.008;10.882;2023-12-29T04:16:55;7.70;99.90
32476;DHT22;18929;48.008;10.882;2023-12-29T04:19:22;7.70;99.90
32476;DHT22;18929;48.008;10.882;2023-12-29T04:21:49;7.40;99.90
32476;DHT22;18929;48.008;10.882;2023-12-29T04:24:16;7.40;99.90
32476;DHT22;18929;48.008;10.882;2023-12-29T04:26:59;7.20;99.90
32476;DHT22;18929;48.008;10.882;2023-12-29T04:29:26;7.60;99.90
32476;DHT22;18929;48.008;10.882;2023-12-29T04:31:53;7.60;99.90
32476;DHT22;18929;48.008;10.882;2023-12-29T04:34:20;7.40;99.90
32476;DHT22;18929;48.008;10.882;2023-12-29T04:36:47;7.40;99.90
32476;DHT22;18929;48.008;10.882;2023-12-29T04:39:14;7.50;99.90
32476;DHT22;18929;48.008;10.882;2023-12-29T04:41:40;7.30;99.90
32476;DHT22;18929;48.008;10.882;2023-12-29T04:44:09;7.60;99.90
32476;DHT22;18929;48.008;10.882;2023-12-29T04:46:36;7.90;99.90
32476;DHT22;18929;48.008;10.882;2023-12-29T04:49:02;7.60;99.90
32476;DHT22;18929;48.008;10.882;2023-12-29T04:51:29;7.80;99.90
32476;DHT22;18929;48.008;10.882;2023-12-29T04:53:56;7.70;99.90
32476;DHT22;18929;48.008;10.882;2023-12-29T04:56:23;8.20;99.90
32476;DHT22;18929;48.008;10.882;2023-12-29T04:58:50;8.60;99.90
32476;DHT22;18929;48.008;10.882;2023-12-29T05:01:19;8.70;99.90
32476;DHT22;18929;48.008;10.882;2023-12-29T05:03:45;8.30;99.90
32476;DHT22;18929;48.008;10.882;2023-12-29T05:06:12;8.10;99.90
32476;DHT22;18929;48.008;10.882;2023-12-29T05:08:39;7.90;99.90
32476;DHT22;18929;48.008;10.882;2023-12-29T05:11:06;7.80;99.90
32476;DHT22;18929;48.008;10.882;2023-12-29T05:13:33;7.80;99.90
32476;DHT22;18929;48.008;10.882;2023-12-29T05:16:00;7.70;99.90
32476;DHT22;18929;48.008;10.882;2023-12-29T05:18:30;8.00;99.90
32476;DHT22;18929;48.008;10.882;2023-12-29T05:20:57;8.00;99.90
32476;DHT22;18929;48.008;10.882;2023-12-29T05:23:24;8.10;99.90
32476;DHT22;18929;48.008;10.882;2023-12-29T05:25:52;8.10;99.90
32476;DHT22;18929;48.008;10.882;2023-12-29T05:28:18;8.20;99.90
32476;DHT22;18929;48.008;10.882;2023-12-29T05:30:45;8.30;99.90
32476;DHT22;18929;48.008;10.882;2023-12-29T05:33:12;8.30;99.90
32476;DHT22;18929;48.008;10.882;2023-12-29T05:35:41;7.90;99.90
32476;DHT22;18929;48.008;10.882;2023-12-29T05:38:07;8.10;99.90
32476;DHT22;18929;48.008;10.882;2023-12-29T05:40:34;8.10;99.90
32476;DHT22;18929;48.008;10.882;2023-12-29T05:43:01;8.20;99.90
32476;DHT22;18929;48.008;10.882;2023-12-29T05:48:05;7.90;99.90
32476;DHT22;18929;48.008;10.882;2023-12-29T05:50:32;8.30;99.90
32476;DHT22;18929;48.008;10.882;2023-12-29T05:53:00;8.20;99.90
32476;DHT22;18929;48.008;10.882;2023-12-29T05:55:27;8.40;99.90
32476;DHT22;18929;48.008;10.882;2023-12-29T05:57:54;8.20;99.90
32476;DHT22;18929;48.008;10.882;2023-12-29T06:00:21;8.30;99.90
32476;DHT22;18929;48.008;10.882;2023-12-29T06:02:48;8.40;99.90
32476;DHT22;18929;48.008;10.882;2023-12-29T06:05:15;8.10;99.90
32476;DHT22;18929;48.008;10.882;2023-12-29T06:07:42;8.20;99.90
32476;DHT22;18929;48.008;10.882;2023-12-29T06:10:10;8.40;99.90
32476;DHT22;18929;48.008;10.882;2023-12-29T06:12:38;8.10;99.90
32476;DHT22;18929;48.008;10.882;2023-12-29T06:15:12;8.10;99.90
32476;DHT22;18929;48.008;10.882;2023-12-29T06:17:39;7.80;99.90
32476;DHT22;18929;48.008;10.882;2023-12-29T06:20:06;7.70;99.90
32476;DHT22;18929;48.008;10.882;2023-12-29T06:22:38;7.50;99.90
32476;DHT22;18929;48.008;10.882;2023-12-29T06:25:06;7.30;99.90
32476;DHT22;18929;48.008;10.882;2023-12-29T06:27:36;7.60;99.90
32476;DHT22;18929;48.008;10.882;2023-12-29T06:30:04;7.50;99.90
32476;DHT22;18929;48.008;10.882;2023-12-29T06:32:31;7.20;99.90
32476;DHT22;18929;48.008;10.882;2023-12-29T06:34:59;7.10;99.90
32476;DHT22;18929;48.008;10.882;2023-12-29T06:37:26;7.10;99.90
32476;DHT22;18929;48.008;10.882;2023-12-29T06:39:53;7.10;99.90
32476;DHT22;18929;48.008;10.882;2023-12-29T06:42:20;7.70;99.90
32476;DHT22;18929;48.008;10.882;2023-12-29T06:44:48;8.10;99.90
32476;DHT22;18929;48.008;10.882;2023-12-29T06:47:15;7.60;99.90
32476;DHT22;18929;48.008;10.882;2023-12-29T06:49:42;7.70;99.90
32476;DHT22;18929;48.008;10.882;2023-12-29T06:52:09;8.00;99.90
32476;DHT22;18929;48.008;10.882;2023-12-29T06:54:35;8.10;99.90
32476;DHT22;18929;48.008;10.882;2023-12-29T06:57:03;8.20;99.90
32476;DHT22;18929;48.008;10.882;2023-12-29T06:59:30;7.50;99.90
32476;DHT22;18929;48.008;10.882;2023-12-29T07:01:59;7.10;99.90
32476;DHT22;18929;48.008;10.882;2023-12-29T07:04:25;7.30;99.90
32476;DHT22;18929;48.008;10.882;2023-12-29T07:06:52;7.60;99.90
32476;DHT22;18929;48.008;10.882;2023-12-29T07:09:19;7.10;99.90
32476;DHT22;18929;48.008;10.882;2023-12-29T07:11:47;7.40;99.90
32476;DHT22;18929;48.008;10.882;2023-12-29T07:14:15;7.40;99.90
32476;DHT22;18929;48.008;10.882;2023-12-29T07:16:43;7.70;99.90
32476;DHT22;18929;48.008;10.882;2023-12-29T07:19:11;7.60;99.90
32476;DHT22;18929;48.008;10.882;2023-12-29T07:21:38;7.60;99.90
32476;DHT22;18929;48.008;10.882;2023-12-29T07:24:05;7.60;99.90
32476;DHT22;18929;48.008;10.882;2023-12-29T07:26:32;7.30;99.90
32476;DHT22;18929;48.008;10.882;2023-12-29T07:28:59;7.60;99.90
32476;DHT22;18929;48.008;10.882;2023-12-29T07:31:26;7.60;99.90
32476;DHT22;18929;48.008;10.882;2023-12-29T07:33:53;7.60;99.90
32476;DHT22;18929;48.008;10.882;2023-12-29T07:36:21;7.70;99.90
32476;DHT22;18929;48.008;10.882;2023-12-29T07:38:48;7.70;99.90
32476;DHT22;18929;48.008;10.882;2023-12-29T07:41:15;7.90;99.90
32476;DHT22;18929;48.008;10.882;2023-12-29T07:43:44;7.80;99.90
32476;DHT22;18929;48.008;10.882;2023-12-29T07:46:11;7.80;99.90
32476;DHT22;18929;48.008;10.882;2023-12-29T07:48:38;8.00;99.90
32476;DHT22;18929;48.008;10.882;2023-12-29T07:51:06;8.30;99.90
32476;DHT22;18929;48.008;10.882;2023-12-29T07:53:34;8.30;99.90
32476;DHT22;18929;48.008;10.882;2023-12-29T07:56:01;8.40;99.90
32476;DHT22;18929;48.008;10.882;2023-12-29T07:58:28;8.00;99.90
32476;DHT22;18929;48.008;10.882;2023-12-29T08:00:54;8.60;99.90
32476;DHT22;18929;48.008;10.882;2023-12-29T08:03:21;8.40;99.90
32476;DHT22;18929;48.008;10.882;2023-12-29T08:05:48;8.30;99.90
32476;DHT22;18929;48.008;10.882;2023-12-29T08:08:15;8.40;99.90
32476;DHT22;18929;48.008;10.882;2023-12-29T08:10:43;8.40;99.90
32476;DHT22;18929;48.008;10.882;2023-12-29T08:13:10;8.60;99.90
32476;DHT22;18929;48.008;10.882;2023-12-29T08:15:37;8.40;99.90
32476;DHT22;18929;48.008;10.882;2023-12-29T08:18:05;8.10;99.90
32476;DHT22;18929;48.008;10.882;2023-12-29T08:20:32;8.10;99.90
32476;DHT22;18929;48.008;10.882;2023-12-29T08:22:59;8.10;99.90
32476;DHT22;18929;48.008;10.882;2023-12-29T08:25:28;8.00;99.90
32476;DHT22;18929;48.008;10.882;2023-12-29T08:27:56;8.00;99.90
32476;DHT22;18929;48.008;10.882;2023-12-29T08:30:23;8.10;99.90
32476;DHT22;18929;48.008;10.882;2023-12-29T08:32:50;8.30;99.90
32476;DHT22;18929;48.008;10.882;2023-12-29T08:35:17;8.50;99.90
32476;DHT22;18929;48.008;10.882;2023-12-29T08:37:44;8.70;99.90
32476;DHT22;18929;48.008;10.882;2023-12-29T08:40:11;8.30;99.90
32476;DHT22;18929;48.008;10.882;2023-12-29T08:42:38;8.30;99.90
32476;DHT22;18929;48.008;10.882;2023-12-29T08:45:06;8.70;99.90
32476;DHT22;18929;48.008;10.882;2023-12-29T08:47:33;8.60;99.90
32476;DHT22;18929;48.008;10.882;2023-12-29T08:50:00;8.70;99.90
32476;DHT22;18929;48.008;10.882;2023-12-29T08:52:27;8.70;99.90
32476;DHT22;18929;48.008;10.882;2023-12-29T08:54:54;8.10;99.90
32476;DHT22;18929;48.008;10.882;2023-12-29T08:57:21;8.10;99.90
32476;DHT22;18929;48.008;10.882;2023-12-29T08:59:48;8.00;99.90
32476;DHT22;18929;48.008;10.882;2023-12-29T09:02:17;8.00;99.90
32476;DHT22;18929;48.008;10.882;2023-12-29T09:04:44;7.70;99.90
32476;DHT22;18929;48.008;10.882;2023-12-29T09:07:11;7.90;99.90
32476;DHT22;18929;48.008;10.882;2023-12-29T09:09:44;8.10;99.90
32476;DHT22;18929;48.008;10.882;2023-12-29T09:12:11;8.40;99.90
32476;DHT22;18929;48.008;10.882;2023-12-29T09:14:38;8.20;99.90
32476;DHT22;18929;48.008;10.882;2023-12-29T09:17:04;8.10;99.90
32476;DHT22;18929;48.008;10.882;2023-12-29T09:19:33;7.80;99.90
32476;DHT22;18929;48.008;10.882;2023-12-29T09:22:01;8.10;99.90
32476;DHT22;18929;48.008;10.882;2023-12-29T09:24:28;8.00;99.90
32476;DHT22;18929;48.008;10.882;2023-12-29T09:26:55;8.00;99.90
32476;DHT22;18929;48.008;10.882;2023-12-29T09:29:22;8.30;99.90
32476;DHT22;18929;48.008;10.882;2023-12-29T09:31:49;8.20;99.90
32476;DHT22;18929;48.008;10.882;2023-12-29T09:34:16;8.30;99.90
32476;DHT22;18929;48.008;10.882;2023-12-29T09:36:44;8.10;99.90
32476;DHT22;18929;48.008;10.882;2023-12-29T09:39:11;8.10;99.90
32476;DHT22;18929;48.008;10.882;2023-12-29T09:41:41;8.40;99.90
32476;DHT22;18929;48.008;10.882;2023-12-29T09:44:10;8.60;99.90
32476;DHT22;18929;48.008;10.882;2023-12-29T09:46:39;8.20;99.90
32476;DHT22;18929;48.008;10.882;2023-12-29T09:49:08;8.20;99.90
32476;DHT22;18929;48.008;10.882;2023-12-29T09:51:37;8.40;99.90
32476;DHT22;18929;48.008;10.882;2023-12-29T09:54:06;8.30;99.90
32476;DHT22;18929;48.008;10.882;2023-12-29T09:56:35;8.10;99.90
32476;DHT22;18929;48.008;10.882;2023-12-29T09:59:01;8.20;99.90
32476;DHT22;18929;48.008;10.882;2023-12-29T10:01:29;8.30;99.90
32476;DHT22;18929;48.008;10.882;2023-12-29T10:03:56;8.40;99.90
32476;DHT22;18929;48.008;10.882;2023-12-29T10:06:24;8.40;99.90
32476;DHT22;18929;48.008;10.882;2023-12-29T10:08:51;8.30;99.90
32476;DHT22;18929;48.008;10.882;2023-12-29T10:11:20;8.40;99.90
32476;DHT22;18929;48.008;10.882;2023-12-29T10:13:48;8.40;99.90
32476;DHT22;18929;48.008;10.882;2023-12-29T10:16:18;8.60;99.90
32476;DHT22;18929;48.008;10.882;2023-12-29T10:18:49;8.80;99.90
32476;DHT22;18929;48.008;10.882;2023-12-29T10:21:23;8.60;99.90
32476;DHT22;18929;48.008;10.882;2023-12-29T10:23:53;8.40;99.90
32476;DHT22;18929;48.008;10.882;2023-12-29T10:26:23;8.70;99.90
32476;DHT22;18929;48.008;10.882;2023-12-29T10:28:50;8.50;99.90
32476;DHT22;18929;48.008;10.882;2023-12-29T10:31:17;8.70;99.90
32476;DHT22;18929;48.008;10.882;2023-12-29T10:33:44;8.50;99.90
32476;DHT22;18929;48.008;10.882;2023-12-29T10:36:15;8.30;99.90
32476;DHT22;18929;48.008;10.882;2023-12-29T10:38:43;8.30;99.90
32476;DHT22;18929;48.008;10.882;2023-12-29T10:41:10;8.70;99.90
32476;DHT22;18929;48.008;10.882;2023-12-29T10:43:39;8.60;99.90
32476;DHT22;18929;48.008;10.882;2023-12-29T10:46:06;8.70;99.90
32476;DHT22;18929;48.008;10.882;2023-12-29T10:48:34;8.80;99.90
32476;DHT22;18929;48.008;10.882;2023-12-29T10:51:01;8.90;99.90
32476;DHT22;18929;48.008;10.882;2023-12-29T10:53:29;8.90;99.90
32476;DHT22;18929;48.008;10.882;2023-12-29T10:55:56;8.90;99.90
32476;DHT22;18929;48.008;10.882;2023-12-29T10:58:24;9.10;99.90
32476;DHT22;18929;48.008;10.882;2023-12-29T11:00:54;8.80;99.90
32476;DHT22;18929;48.008;10.882;2023-12-29T11:03:21;8.70;99.90
32476;DHT22;18929;48.008;10.882;2023-12-29T11:05:48;8.90;99.90
32476;DHT22;18929;48.008;10.882;2023-12-29T11:08:15;8.80;99.90
32476;DHT22;18929;48.008;10.882;2023-12-29T11:10:43;9.10;99.90
32476;DHT22;18929;48.008;10.882;2023-12-29T11:13:10;9.10;99.90
32476;DHT22;18929;48.008;10.882;2023-12-29T11:15:40;9.00;99.90
32476;DHT22;18929;48.008;10.882;2023-12-29T11:18:09;9.00;99.90
32476;DHT22;18929;48.008;10.882;2023-12-29T11:20:38;8.60;99.90
32476;DHT22;18929;48.008;10.882;2023-12-29T11:23:05;8.90;99.90
32476;DHT22;18929;48.008;10.882;2023-12-29T11:25:33;9.00;99.90
32476;DHT22;18929;48.008;10.882;2023-12-29T11:28:00;9.00;99.90
32476;DHT22;18929;48.008;10.882;2023-12-29T11:30:27;8.80;99.90
32476;DHT22;18929;48.008;10.882;2023-12-29T11:32:55;9.00;99.90
32476;DHT22;18929;48.008;10.882;2023-12-29T11:35:25;8.80;99.90
32476;DHT22;18929;48.008;10.882;2023-12-29T11:37:59;8.80;99.90
32476;DHT22;18929;48.008;10.882;2023-12-29T11:40:32;8.90;99.90
32476;DHT22;18929;48.008;10.882;2023-12-29T11:43:01;9.30;99.90
32476;DHT22;18929;48.008;10.882;2023-12-29T11:45:30;9.50;99.90
32476;DHT22;18929;48.008;10.882;2023-12-29T11:47:59;9.50;99.90
32476;DHT22;18929;48.008;10.882;2023-12-29T11:50:30;9.50;99.90
32476;DHT22;18929;48.008;10.882;2023-12-29T11:52:57;9.70;99.90
32476;DHT22;18929;48.008;10.882;2023-12-29T11:55:27;9.00;99.90
32476;DHT22;18929;48.008;10.882;2023-12-29T11:57:55;8.90;99.90
32476;DHT22;18929;48.008;10.882;2023-12-29T12:03:12;9.60;99.90
32476;DHT22;18929;48.008;10.882;2023-12-29T12:05:47;9.30;99.90
32476;DHT22;18929;48.008;10.882;2023-12-29T12:10:56;8.90;99.90
32476;DHT22;18929;48.008;10.882;2023-12-29T12:19:00;8.80;99.90
32476;DHT22;18929;48.008;10.882;2023-12-29T12:21:28;9.40;99.90
32476;DHT22;18929;48.008;10.882;2023-12-29T12:23:55;9.70;99.90
32476;DHT22;18929;48.008;10.882;2023-12-29T12:26:22;9.80;99.90
32476;DHT22;18929;48.008;10.882;2023-12-29T12:28:51;9.60;99.90
32476;DHT22;18929;48.008;10.882;2023-12-29T12:31:18;9.20;99.90
32476;DHT22;18929;48.008;10.882;2023-12-29T12:33:52;9.40;99.90
32476;DHT22;18929;48.008;10.882;2023-12-29T12:36:19;9.40;99.90
32476;DHT22;18929;48.008;10.882;2023-12-29T12:38:51;9.20;99.90
32476;DHT22;18929;48.008;10.882;2023-12-29T12:41:18;9.00;99.90
32476;DHT22;18929;48.008;10.882;2023-12-29T12:43:47;9.30;99.90
32476;DHT22;18929;48.008;10.882;2023-12-29T12:46:16;9.30;99.90
32476;DHT22;18929;48.008;10.882;2023-12-29T12:48:45;9.00;99.90
32476;DHT22;18929;48.008;10.882;2023-12-29T12:51:12;9.30;99.90
32476;DHT22;18929;48.008;10.882;2023-12-29T12:53:39;9.60;99.90
32476;DHT22;18929;48.008;10.882;2023-12-29T12:56:08;10.00;99.90
32476;DHT22;18929;48.008;10.882;2023-12-29T12:58:35;9.40;99.90
32476;DHT22;18929;48.008;10.882;2023-12-29T13:01:05;9.30;99.90
32476;DHT22;18929;48.008;10.882;2023-12-29T13:03:32;9.60;99.90
32476;DHT22;18929;48.008;10.882;2023-12-29T13:05:59;9.80;99.90
32476;DHT22;18929;48.008;10.882;2023-12-29T13:08:27;9.40;99.90
32476;DHT22;18929;48.008;10.882;2023-12-29T13:10:54;9.30;99.90
32476;DHT22;18929;48.008;10.882;2023-12-29T13:13:22;9.80;99.90
32476;DHT22;18929;48.008;10.882;2023-12-29T13:15:51;9.80;99.90
32476;DHT22;18929;48.008;10.882;2023-12-29T13:18:27;9.90;99.90
32476;DHT22;18929;48.008;10.882;2023-12-29T13:20:54;10.10;99.90
32476;DHT22;18929;48.008;10.882;2023-12-29T13:23:24;9.50;99.90
32476;DHT22;18929;48.008;10.882;2023-12-29T13:25:53;9.60;99.90
32476;DHT22;18929;48.008;10.882;2023-12-29T13:28:22;9.50;99.90
32476;DHT22;18929;48.008;10.882;2023-12-29T13:30:49;9.50;99.90
32476;DHT22;18929;48.008;10.882;2023-12-29T13:33:17;9.20;99.90
32476;DHT22;18929;48.008;10.882;2023-12-29T13:35:47;9.30;99.90
32476;DHT22;18929;48.008;10.882;2023-12-29T13:38:17;9.30;99.90
32476;DHT22;18929;48.008;10.882;2023-12-29T13:40:47;9.30;99.90
32476;DHT22;18929;48.008;10.882;2023-12-29T13:43:19;9.50;99.90
32476;DHT22;18929;48.008;10.882;2023-12-29T13:45:48;9.60;99.90
32476;DHT22;18929;48.008;10.882;2023-12-29T13:48:15;9.80;99.90
32476;DHT22;18929;48.008;10.882;2023-12-29T13:50:44;9.70;99.90
32476;DHT22;18929;48.008;10.882;2023-12-29T13:53:15;9.60;99.90
32476;DHT22;18929;48.008;10.882;2023-12-29T13:55:42;9.60;99.90
32476;DHT22;18929;48.008;10.882;2023-12-29T13:58:09;10.10;99.90
32476;DHT22;18929;48.008;10.882;2023-12-29T14:00:36;10.00;99.90
32476;DHT22;18929;48.008;10.882;2023-12-29T14:03:09;10.10;99.90
32476;DHT22;18929;48.008;10.882;2023-12-29T14:08:09;9.60;99.90
32476;DHT22;18929;48.008;10.882;2023-12-29T14:10:36;9.50;99.90
32476;DHT22;18929;48.008;10.882;2023-12-29T14:13:04;9.70;99.90
32476;DHT22;18929;48.008;10.882;2023-12-29T14:15:38;9.50;99.90
32476;DHT22;18929;48.008;10.882;2023-12-29T14:18:08;9.80;99.90
32476;DHT22;18929;48.008;10.882;2023-12-29T14:20:36;9.90;99.90
32476;DHT22;18929;48.008;10.882;2023-12-29T14:23:04;9.80;99.90
32476;DHT22;18929;48.008;10.882;2023-12-29T14:25:31;10.10;99.90
32476;DHT22;18929;48.008;10.882;2023-12-29T14:28:01;10.00;99.90
32476;DHT22;18929;48.008;10.882;2023-12-29T14:30:28;9.60;99.90
32476;DHT22;18929;48.008;10.882;2023-12-29T14:32:56;9.60;99.90
32476;DHT22;18929;48.008;10.882;2023-12-29T14:35:25;9.70;99.90
32476;DHT22;18929;48.008;10.882;2023-12-29T14:37:52;9.60;99.90
32476;DHT22;18929;48.008;10.882;2023-12-29T14:40:19;9.80;99.90
32476;DHT22;18929;48.008;10.882;2023-12-29T14:42:46;9.80;99.90
32476;DHT22;18929;48.008;10.882;2023-12-29T14:45:13;9.70;99.90
32476;DHT22;18929;48.008;10.882;2023-12-29T14:47:40;9.60;99.90
32476;DHT22;18929;48.008;10.882;2023-12-29T14:50:07;9.70;99.90
32476;DHT22;18929;48.008;10.882;2023-12-29T14:52:35;9.60;99.90
32476;DHT22;18929;48.008;10.882;2023-12-29T14:55:02;9.70;99.90
32476;DHT22;18929;48.008;10.882;2023-12-29T14:57:29;9.70;99.90
32476;DHT22;18929;48.008;10.882;2023-12-29T14:59:56;9.80;99.90
32476;DHT22;18929;48.008;10.882;2023-12-29T15:02:23;9.90;99.90
32476;DHT22;18929;48.008;10.882;2023-12-29T15:04:50;9.70;99.90
32476;DHT22;18929;48.008;10.882;2023-12-29T15:07:17;9.70;99.90
32476;DHT22;18929;48.008;10.882;2023-12-29T15:09:46;9.50;99.90
32476;DHT22;18929;48.008;10.882;2023-12-29T15:12:12;9.30;99.90
32476;DHT22;18929;48.008;10.882;2023-12-29T15:14:40;9.70;99.90
32476;DHT22;18929;48.008;10.882;2023-12-29T15:17:07;9.80;99.90
32476;DHT22;18929;48.008;10.882;2023-12-29T15:19:40;9.50;99.90
32476;DHT22;18929;48.008;10.882;2023-12-29T15:22:07;9.60;99.90
32476;DHT22;18929;48.008;10.882;2023-12-29T15:24:33;9.60;99.90
32476;DHT22;18929;48.008;10.882;2023-12-29T15:27:02;9.40;99.90
32476;DHT22;18929;48.008;10.882;2023-12-29T15:29:28;9.70;99.90
32476;DHT22;18929;48.008;10.882;2023-12-29T15:31:57;9.90;99.90
32476;DHT22;18929;48.008;10.882;2023-12-29T15:34:24;10.00;99.90
32476;DHT22;18929;48.008;10.882;2023-12-29T15:36:52;10.00;99.90
32476;DHT22;18929;48.008;10.882;2023-12-29T15:39:18;10.00;99.90
32476;DHT22;18929;48.008;10.882;2023-12-29T15:41:46;10.20;99.90
32476;DHT22;18929;48.008;10.882;2023-12-29T15:44:14;10.00;99.90
32476;DHT22;18929;48.008;10.882;2023-12-29T15:46:41;10.00;99.90
32476;DHT22;18929;48.008;10.882;2023-12-29T15:49:08;10.00;99.90
32476;DHT22;18929;48.008;10.882;2023-12-29T15:51:35;9.80;99.90
32476;DHT22;18929;48.008;10.882;2023-12-29T15:54:02;10.00;99.90
32476;DHT22;18929;48.008;10.882;2023-12-29T15:56:30;9.80;99.90